Nicopolis — SVCR2 — position and weather

sailwx.info

Track history (hours):
 
Tides and Currents Weather Stations Pressure Air Temp Water Temp Dewpoint Dewpoint Depression Visibility Wind Speed Wind Dir Waves Ship Positions

Nicopolis

Last reported at 2017-Dec-11 17:00 UTC. Time now 2017-Dec-13 15:10 UTC.
Position N 09°11' W 079°53'.

Length 228 m; draft 11 m.

Type: Tanker. MMSI: 241528000.

Date/timePositionNaut miles runAvg speedWind from/ knotsBaromVisibWave heightAir tempDewpointWater temp
2017-Dec-11 17:00N 09°11' W 079°53'  
2017-Dec-03 00:46N 32°07' W 117°37'312.9
2017-Dec-03 00:30N 32°10' W 117°38'712.9
2017-Dec-03 00:00N 32°16' W 117°41'613.0
2017-Dec-02 23:30N 32°22' W 117°43'713.1
2017-Dec-02 23:00N 32°28' W 117°46'713.2
2017-Dec-02 22:30N 32°34' W 117°48'713.3
2017-Dec-02 22:01N 32°41' W 117°51'713.4
2017-Dec-02 21:30N 32°47' W 117°53'713.3
2017-Dec-02 21:00N 32°53' W 117°56'612.6
2017-Dec-02 20:30N 32°59' W 117°58'611.7
2017-Dec-02 20:01N 33°05' W 118°00'611.7
2017-Dec-02 19:31N 33°10' W 118°03'611.6
2017-Dec-02 19:00N 33°16' W 118°05'611.6
2017-Dec-02 18:30N 33°21' W 118°07'611.4
2017-Dec-02 18:00N 33°27' W 118°10'611.4
2017-Dec-02 17:30N 33°32' W 118°12'611.1
2017-Dec-02 17:00N 33°38' W 118°13'6 3.7
2017-Dec-02 15:25N 33°43' W 118°13'0 0.0
2017-Dec-02 14:55N 33°43' W 118°13'0 0.0
2017-Dec-02 14:19N 33°43' W 118°13'0 0.1
2017-Dec-02 13:07N 33°43' W 118°13'0 0.0
2017-Dec-02 12:49N 33°43' W 118°13'0 0.0
2017-Dec-02 12:25N 33°43' W 118°13'0 0.0
2017-Dec-02 11:55N 33°43' W 118°13'0 0.0
2017-Dec-02 10:07N 33°43' W 118°13'0 0.1
2017-Dec-02 09:49N 33°43' W 118°13'0 0.1
2017-Dec-02 09:19N 33°43' W 118°13'0 0.3
2017-Dec-02 08:55N 33°43' W 118°13'0 0.2
2017-Dec-02 08:30N 33°43' W 118°13'3 5.1
2017-Dec-02 08:00N 33°44' W 118°16'  
Track history (hours):
 
Tides and Currents Weather Stations Pressure Air Temp Water Temp Dewpoint Dewpoint Depression Visibility Wind Speed Wind Dir Waves Ship Positions

Nicopolis

Last reported at 2017-Dec-11 17:00 UTC. Time now 2017-Dec-13 15:10 UTC.
Position N 09°11' W 079°53'.

Length 228 m; draft 11 m.

Type: Tanker. MMSI: 241528000.

Date/timePositionNaut miles runAvg speedWind from/ knotsBaromVisibWave heightAir tempDewpointWater temp
2017-Dec-11 17:00N 09°11' W 079°53'  
2017-Dec-03 00:46N 32°07' W 117°37'312.9
2017-Dec-03 00:30N 32°10' W 117°38'712.9
2017-Dec-03 00:00N 32°16' W 117°41'613.0
2017-Dec-02 23:30N 32°22' W 117°43'713.1
2017-Dec-02 23:00N 32°28' W 117°46'713.2
2017-Dec-02 22:30N 32°34' W 117°48'713.3
2017-Dec-02 22:01N 32°41' W 117°51'713.4
2017-Dec-02 21:30N 32°47' W 117°53'713.3
2017-Dec-02 21:00N 32°53' W 117°56'612.6
2017-Dec-02 20:30N 32°59' W 117°58'611.7
2017-Dec-02 20:01N 33°05' W 118°00'611.7
2017-Dec-02 19:31N 33°10' W 118°03'611.6
2017-Dec-02 19:00N 33°16' W 118°05'611.6
2017-Dec-02 18:30N 33°21' W 118°07'611.4
2017-Dec-02 18:00N 33°27' W 118°10'611.4
2017-Dec-02 17:30N 33°32' W 118°12'611.1
2017-Dec-02 17:00N 33°38' W 118°13'6 3.7
2017-Dec-02 15:25N 33°43' W 118°13'0 0.0
2017-Dec-02 14:55N 33°43' W 118°13'0 0.0
2017-Dec-02 14:19N 33°43' W 118°13'0 0.1
2017-Dec-02 13:07N 33°43' W 118°13'0 0.0
2017-Dec-02 12:49N 33°43' W 118°13'0 0.0
2017-Dec-02 12:25N 33°43' W 118°13'0 0.0
2017-Dec-02 11:55N 33°43' W 118°13'0 0.0
2017-Dec-02 10:07N 33°43' W 118°13'0 0.1
2017-Dec-02 09:49N 33°43' W 118°13'0 0.1
2017-Dec-02 09:19N 33°43' W 118°13'0 0.3
2017-Dec-02 08:55N 33°43' W 118°13'0 0.2
2017-Dec-02 08:30N 33°43' W 118°13'3 5.1
2017-Dec-02 08:00N 33°44' W 118°16'  

Dump ship's entire track history